LDZALDDU

Guest
Details From LDZA - Zagreb
To LDDU - DUBROVNIK
Flight Number -
Tags decoded
Created
Modified
Stats Distance 219 nm / 406 km
Max Altitude 0 ft / 0 m
Waypoints 3
Social Downloads 5
Likes 0
Share VATSIM

Download

Looking for another format? Having issues loading an existing format? Contact us
Advertisement - Login to hide

Notes

Requested: LDZA LDDP LDDU

Route

LDZA LDDP LDDU

ID Type Via Altitude Latitude Longitude Leg Dist Tot Dist Heading (true) Name
O LDZA APT - 0 ft / 0 m 45.74189˚ 16.06720˚ - 0 nm - Zagreb
LDDP APT - 0 ft / 0 m 43.03869˚ 17.42965˚ 172 nm 172 nm 160° / 161° PLOCE
O LDDU APT - 0 ft / 0 m 42.56284˚ 18.26450˚ 46 nm 219 nm 128° / 128° DUBROVNIK

Altitude Profile

Advertisement - Login to hide

Weather


0- 5 10 15 20 25 30 35+ Temperature / ° C

Clouds and Precipitation
Forecast for 2018-05-24 00:00 UTC. Updated 2 hours ago

Ground ~20,000 ft ~40,000 ft Winds

LDZA

Details ICAO LDZA (ZAG)
Name Zagreb
Region Croatia
Timezone Europe/Zagreb (UTC+2.0)
Stats Elevation 353 ft / 108 m (AMSL)
Location 45.741890° 16.067200°
Runways 1
Magnetic Variation 4.008° E

METAR

LDZA 240100Z 01003KT 340V040 9999 -RA NSC 17/15 Q1017 TEMPO SHRA FEW035TCU SCT040

Decode

TAF

TAF LDZA 232325Z 2400/2500 VRB02KT 9999 FEW040 TX25/2413Z TN15/2404Z PROB30 TEMPO 2400/2402 TSRA FEW030CB SCT035 PROB30 TEMPO 2402/2406 1500 BCFG PROB30 TEMPO 2402/2411 SHRA FEW030TCU BKN035 PROB40 TEMPO 2411/2417 VRB15G25KT 4000 TSRA SCT025CB SCT035 PROB30 TEMPO 2420/2500 TSRA FEW040CB

Decode

Departure Runways

ID Width Length Bearing (true) Bearing (mag) Surface Threshold Offset Overrun Length
05 148 ft / 45 m 10,659 ft / 3,249 m 46.69° 42.68° Asphalt 0 ft / 0 m 195 ft / 59 m
23 148 ft / 45 m 10,659 ft / 3,249 m 226.71° 222.70° Asphalt 0 ft / 0 m 195 ft / 59 m

LDDU

Details ICAO LDDU (DBV)
Name DUBROVNIK
Region Croatia
Timezone Europe/Zagreb (UTC+2.0)
Stats Elevation 527 ft / 161 m (AMSL)
Location 42.562840° 18.264499°
Runways 1
Magnetic Variation 4.146° E

METAR

LDDU 240100Z 08004KT 040V100 9999 FEW030 17/15 Q1015

Decode

TAF

TAF LDDU 232325Z 2400/2500 02010KT CAVOK TX25/2413Z TN17/2404Z TEMPO 2400/2406 08008KT BECMG 2408/2410 29008KT PROB30 TEMPO 2411/2416 02015KT -TSRA FEW035CB SCT040 BECMG 2417/2419 02010KT

Decode

Destination Runways

ID Width Length Bearing (true) Bearing (mag) Surface Threshold Offset Overrun Length
12 148 ft / 45 m 10,803 ft / 3,293 m 118.30° 114.15° Asphalt 488 ft / 149 m 100 ft / 30 m
30 148 ft / 45 m 10,803 ft / 3,293 m 298.33° 294.18° Asphalt 0 ft / 0 m 100 ft / 30 m

Approach Navaids

Runway Type Ident Frequency Range Bearing (true) Bearing (mag) Slope Elevation
12 Localiser IDU 110.10 MHz 25 nm / 46 km 118.21° 114.06° - 469 ft / 143 m (AMSL)
12 Glidescope IDU 110.10 MHz 25 nm / 46 km 118.21° 114.06° 3.00° 502 ft / 153 m (AMSL)

Popular Alternatives